Time;durP1;ratioP1;P1;durP2;ratioP2;P2;SDS_P1;SDS_P2;PMS_P1;PMS_P2;Temp;Humidity;BMP_temperature;BMP_pressure;BME280_temperature;BME280_humidity;BME280_pressure;Samples;Min_cycle;Max_cycle;Signal;HPM_P1;HPM_P2
2022/07/12 00:01:45;;;;;;;0.50;0.40;;;13.20;79.00;13.10;101167.00;;;;5016526;27;82613;-61
2022/07/12 00:04:11;;;;;;;0.70;0.70;;;13.20;79.40;13.10;101167.00;;;;5006957;27;108762;-61
2022/07/12 00:06:36;;;;;;;0.40;0.40;;;13.10;80.00;13.00;101171.00;;;;5000227;27;112381;-62
2022/07/12 00:09:03;;;;;;;6.63;0.53;;;13.00;80.30;13.00;101179.00;;;;5017083;27;110768;-61
2022/07/12 00:11:28;;;;;;;0.80;0.77;;;13.00;80.90;12.90;101164.00;;;;4996233;27;82830;-61
2022/07/12 00:13:54;;;;;;;0.57;0.43;;;12.90;81.30;12.90;101171.00;;;;5014893;27;108372;-62
2022/07/12 00:16:19;;;;;;;0.40;0.40;;;12.90;81.80;12.90;101172.00;;;;5018252;27;83720;-61
2022/07/12 00:18:45;;;;;;;0.93;0.67;;;12.80;82.50;12.80;101176.00;;;;5016030;27;83967;-61
2022/07/12 00:21:11;;;;;;;0.40;0.40;;;12.80;83.20;12.70;101181.00;;;;4996329;27;92040;-62
2022/07/12 00:23:37;;;;;;;1.13;0.40;;;12.70;83.50;12.70;101175.00;;;;4997088;27;108369;-62
2022/07/12 00:26:04;;;;;;;0.30;0.30;;;12.70;83.90;12.60;101174.00;;;;4997294;28;83653;-62
2022/07/12 00:28:33;;;;;;;1.13;0.30;;;12.70;84.30;12.60;101176.00;;;;4996759;27;83285;-61
2022/07/12 00:30:59;;;;;;;0.80;0.80;;;12.60;84.50;12.60;101186.00;;;;4976497;28;98229;-62
2022/07/12 00:33:25;;;;;;;0.77;0.60;;;12.60;85.40;12.60;101182.00;;;;4981917;27;82750;-61
2022/07/12 00:35:51;;;;;;;2.70;0.67;;;12.50;86.00;12.50;101189.00;;;;5019772;27;99372;-61
2022/07/12 00:38:18;;;;;;;1.70;0.83;;;12.50;86.50;12.50;101180.00;;;;5016767;27;112027;-62
2022/07/12 00:40:44;;;;;;;0.30;0.30;;;12.40;87.30;12.40;101187.00;;;;5001149;28;82595;-62
2022/07/12 00:43:09;;;;;;;0.90;0.90;;;12.40;87.90;12.40;101173.00;;;;5000976;27;82421;-61
2022/07/12 00:45:35;;;;;;;1.70;0.87;;;12.90;88.70;12.40;101190.00;;;;5000232;27;113160;-62
2022/07/12 00:48:01;;;;;;;0.63;0.63;;;12.30;88.60;12.40;101193.00;;;;4999392;27;112745;-61
2022/07/12 00:50:27;;;;;;;0.80;0.80;;;12.40;89.20;12.30;101193.00;;;;5007401;27;110222;-62
2022/07/12 00:52:55;;;;;;;0.83;0.53;;;12.30;89.60;12.20;101191.00;;;;5000804;27;82548;-61
2022/07/12 00:55:22;;;;;;;1.10;0.50;;;12.20;90.00;12.20;101194.00;;;;5001158;27;83808;-61
2022/07/12 00:57:49;;;;;;;0.80;0.80;;;12.20;90.30;12.10;101189.00;;;;4997734;27;91289;-62
2022/07/12 01:00:22;;;;;;;3.07;1.03;;;12.10;90.60;12.10;101195.00;;;;5000824;27;82904;-61
2022/07/12 01:02:48;;;;;;;1.83;0.70;;;12.10;90.90;12.10;101193.00;;;;5001906;27;81912;-62
2022/07/12 01:05:14;;;;;;;1.80;0.80;;;12.10;91.00;12.10;101194.00;;;;5005237;27;83697;-62
2022/07/12 01:07:40;;;;;;;1.07;0.60;;;12.00;91.20;12.10;101196.00;;;;4997942;27;113167;-61
2022/07/12 01:10:07;;;;;;;0.83;0.70;;;12.00;91.40;12.00;101201.00;;;;4980755;28;97450;-62
2022/07/12 01:12:34;;;;;;;0.77;0.43;;;12.00;91.50;12.00;101194.00;;;;5000608;28;82676;-62
2022/07/12 01:15:00;;;;;;;0.30;0.30;;;12.00;91.70;11.90;101191.00;;;;5000667;28;92839;-61
2022/07/12 01:17:27;;;;;;;0.63;0.50;;;11.90;91.70;11.90;101190.00;;;;4981518;28;82903;-62
2022/07/12 01:19:57;;;;;;;2.47;0.90;;;11.90;91.90;11.90;101194.00;;;;4999778;27;83263;-62
2022/07/12 01:22:36;;;;;;;1.67;0.87;;;11.90;92.20;11.80;101190.00;;;;5000592;28;98606;-62
2022/07/12 01:25:05;;;;;;;0.37;0.37;;;11.80;92.40;11.80;101181.00;;;;5012255;27;83037;-61
2022/07/12 01:27:31;;;;;;;0.40;0.40;;;11.80;93.00;11.80;101192.00;;;;5019647;27;83782;-62
2022/07/12 01:29:57;;;;;;;0.80;0.60;;;11.80;92.90;11.70;101190.00;;;;5014616;27;110365;-62
2022/07/12 01:32:26;;;;;;;0.67;0.67;;;11.70;93.00;11.70;101194.00;;;;4999169;28;108903;-61
2022/07/12 01:34:57;;;;;;;1.07;0.73;;;11.70;93.10;11.70;101193.00;;;;4999209;28;83695;-61
2022/07/12 01:37:27;;;;;;;0.60;0.60;;;11.70;93.30;11.70;101190.00;;;;4999556;27;84187;-61
2022/07/12 01:39:55;;;;;;;0.60;0.60;;;11.70;93.50;11.60;101190.00;;;;5002482;27;82868;-62
2022/07/12 01:42:23;;;;;;;0.47;0.47;;;11.60;93.80;11.60;101191.00;;;;5019575;27;82666;-61
2022/07/12 01:44:50;;;;;;;0.87;0.80;;;11.60;94.10;11.50;101194.00;;;;5018024;27;83696;-61
2022/07/12 01:47:21;;;;;;;0.57;0.30;;;11.50;94.30;11.50;101198.00;;;;5000810;27;82707;-61
2022/07/12 01:49:47;;;;;;;0.63;0.53;;;11.50;94.50;11.50;101201.00;;;;5000594;27;90386;-62
2022/07/12 01:52:13;;;;;;;0.37;0.30;;;11.60;94.70;11.50;101204.00;;;;5019809;27;108982;-61
2022/07/12 01:54:39;;;;;;;0.60;0.60;;;11.50;94.80;11.50;101198.00;;;;4999935;27;85661;-62
2022/07/12 01:57:06;;;;;;;0.67;0.30;;;11.50;95.00;11.50;101204.00;;;;5000874;27;82832;-62
2022/07/12 01:59:32;;;;;;;0.93;0.83;;;11.50;95.20;11.50;101212.00;;;;5007299;27;83668;-61
2022/07/12 02:01:58;;;;;;;0.37;0.37;;;11.50;95.40;11.40;101213.00;;;;4999977;27;82836;-61
2022/07/12 02:04:24;;;;;;;0.67;0.47;;;11.40;95.60;11.40;101210.00;;;;5008303;27;83135;-61
2022/07/12 02:06:50;;;;;;;0.33;0.33;;;11.40;95.60;11.40;101210.00;;;;4999005;27;82859;-61
2022/07/12 02:09:17;;;;;;;1.80;0.47;;;11.40;95.90;11.40;101208.00;;;;4999088;28;110293;-61
2022/07/12 02:11:44;;;;;;;0.73;0.73;;;11.40;96.10;11.40;101208.00;;;;4997293;27;107938;-61
2022/07/12 02:14:14;;;;;;;0.80;0.80;;;11.40;96.40;11.40;101212.00;;;;5018147;27;82842;-61
2022/07/12 02:16:41;;;;;;;1.00;0.60;;;11.40;96.70;11.40;101203.00;;;;5019909;27;82905;-61
2022/07/12 02:19:07;;;;;;;0.70;0.70;;;11.40;97.00;11.50;101212.00;;;;5018526;27;99384;-62
2022/07/12 02:21:34;;;;;;;0.33;0.33;;;11.40;97.10;11.50;101210.00;;;;5003330;27;82984;-61
2022/07/12 02:24:00;;;;;;;0.87;0.87;;;11.40;97.40;11.50;101208.00;;;;4997924;27;103981;-61
2022/07/12 02:26:26;;;;;;;1.80;0.70;;;11.50;97.80;11.50;101209.00;;;;4979713;28;83207;-61
2022/07/12 02:28:52;;;;;;;2.07;0.50;;;11.50;97.90;11.50;101220.00;;;;4999758;27;84979;-61
2022/07/12 02:31:18;;;;;;;1.50;1.10;;;11.50;98.00;11.50;101215.00;;;;5013334;27;108753;-62
2022/07/12 02:33:43;;;;;;;0.83;0.63;;;11.50;98.00;11.60;101225.00;;;;5002551;27;112809;-61
2022/07/12 02:36:09;;;;;;;0.63;0.60;;;11.50;98.10;11.60;101217.00;;;;5019829;27;83047;-61
2022/07/12 02:38:35;;;;;;;1.33;0.77;;;11.60;98.20;11.70;101229.00;;;;5017606;27;110602;-61
2022/07/12 02:41:01;;;;;;;0.83;0.77;;;11.60;98.10;11.70;101227.00;;;;5018802;27;108439;-61
2022/07/12 02:43:31;;;;;;;1.07;0.97;;;11.70;98.20;11.80;101224.00;;;;5019226;27;82634;-61
2022/07/12 02:46:13;;;;;;;3.83;0.70;;;11.80;98.10;11.90;101219.00;;;;5011911;27;82769;-61
2022/07/12 02:48:41;;;;;;;1.40;0.70;;;11.80;98.00;11.90;101217.00;;;;5018171;27;83682;-61
2022/07/12 02:51:08;;;;;;;0.60;0.60;;;11.90;98.00;12.00;101221.00;;;;5018605;27;82649;-62
2022/07/12 02:53:35;;;;;;;4.03;0.90;;;11.90;98.10;12.00;101228.00;;;;5014121;27;83159;-61
2022/07/12 02:56:01;;;;;;;2.00;0.90;;;12.00;98.20;12.00;101231.00;;;;4998378;27;103475;-61
2022/07/12 02:58:27;;;;;;;1.33;0.67;;;12.00;98.20;12.00;101223.00;;;;4997918;27;90956;-61
2022/07/12 03:00:53;;;;;;;0.90;0.80;;;12.00;98.20;12.10;101225.00;;;;4998650;28;82418;-61
2022/07/12 03:03:18;;;;;;;0.73;0.73;;;12.00;98.20;12.10;101231.00;;;;4998918;27;95843;-60
2022/07/12 03:05:44;;;;;;;7.20;0.80;;;12.10;98.20;12.10;101227.00;;;;5008406;27;86908;-61
2022/07/12 03:08:11;;;;;;;0.90;0.73;;;12.10;98.20;12.20;101227.00;;;;5012544;27;82869;-61
2022/07/12 03:10:38;;;;;;;1.37;0.40;;;12.10;98.30;12.20;101231.00;;;;4998185;28;82957;-61
2022/07/12 03:13:05;;;;;;;0.90;0.70;;;12.10;98.30;12.20;101225.00;;;;4997814;28;84256;-61
2022/07/12 03:15:32;;;;;;;2.00;1.00;;;12.10;98.40;12.20;101230.00;;;;4997472;28;101690;-61
2022/07/12 03:18:00;;;;;;;1.30;0.60;;;12.10;98.50;12.20;101231.00;;;;4998124;27;82512;-61
2022/07/12 03:20:27;;;;;;;0.63;0.63;;;12.10;98.70;12.20;101214.00;;;;5006996;27;82705;-61
2022/07/12 03:22:53;;;;;;;0.40;0.40;;;12.10;98.80;12.20;101222.00;;;;4998289;27;89403;-61
2022/07/12 03:25:20;;;;;;;1.00;0.90;;;12.20;99.00;12.20;101219.00;;;;5003343;27;82607;-61
2022/07/12 03:27:46;;;;;;;2.93;1.47;;;12.20;99.20;12.20;101217.00;;;;5017216;27;96346;-61
2022/07/12 03:30:13;;;;;;;0.83;0.83;;;12.50;99.40;12.20;101221.00;;;;5016408;27;106841;-59
2022/07/12 03:32:39;;;;;;;0.50;0.50;;;12.20;99.50;12.30;101226.00;;;;4996053;28;83454;-61
2022/07/12 03:35:05;;;;;;;1.07;0.97;;;12.20;99.60;12.30;101230.00;;;;4997026;27;85481;-61
2022/07/12 03:37:52;;;;;;;1.87;0.80;;;12.30;99.70;12.30;101236.00;;;;4997247;28;83960;-61
2022/07/12 03:40:20;;;;;;;0.83;0.80;;;12.30;99.90;12.40;101241.00;;;;4996440;27;108410;-61
2022/07/12 03:42:47;;;;;;;1.23;0.70;;;12.30;99.90;12.40;101242.00;;;;5017845;27;83261;-60
2022/07/12 03:45:13;;;;;;;2.47;0.97;;;12.30;99.90;12.40;101242.00;;;;5017393;27;82960;-60
2022/07/12 03:47:42;;;;;;;1.13;0.57;;;12.40;99.90;12.40;101242.00;;;;5018422;27;85369;-61
2022/07/12 03:50:11;;;;;;;0.60;0.60;;;12.40;99.90;12.40;101248.00;;;;5012155;27;83225;-61
2022/07/12 03:52:39;;;;;;;0.87;0.83;;;12.20;99.90;12.50;101245.00;;;;4998057;27;82744;-61
2022/07/12 03:55:05;;;;;;;0.53;0.40;;;12.40;99.90;12.50;101253.00;;;;4990578;27;82630;-61
2022/07/12 03:57:31;;;;;;;0.93;0.63;;;12.40;99.90;12.50;101250.00;;;;5016693;27;90291;-61
2022/07/12 03:59:57;;;;;;;0.90;0.70;;;12.40;99.90;12.50;101250.00;;;;5017035;27;107861;-60
2022/07/12 04:02:23;;;;;;;1.23;1.00;;;12.50;99.90;12.60;101248.00;;;;5000530;27;90760;-61
2022/07/12 04:04:49;;;;;;;4.20;0.97;;;12.50;99.90;12.60;101256.00;;;;4999150;27;84907;-61
2022/07/12 04:07:15;;;;;;;0.80;0.77;;;12.50;99.90;12.60;101249.00;;;;4997152;27;82766;-59
2022/07/12 04:09:41;;;;;;;0.93;0.43;;;12.50;99.90;12.70;101255.00;;;;4997307;27;108970;-60
2022/07/12 04:12:07;;;;;;;0.63;0.63;;;12.60;99.90;12.70;101255.00;;;;5014201;27;111142;-60
2022/07/12 04:14:33;;;;;;;1.83;0.97;;;12.60;99.90;12.80;101248.00;;;;5020692;27;83523;-61
2022/07/12 04:16:59;;;;;;;1.10;0.60;;;12.70;99.90;12.80;101238.00;;;;5028899;27;82563;-61
2022/07/12 04:19:27;;;;;;;0.60;0.60;;;12.70;99.90;12.90;101258.00;;;;5018494;27;106295;-61
2022/07/12 04:21:55;;;;;;;2.93;1.00;;;12.80;99.90;13.00;101252.00;;;;5007833;27;84206;-61
2022/07/12 04:24:22;;;;;;;1.17;1.03;;;12.90;99.90;13.00;101251.00;;;;5017813;27;83667;-60
2022/07/12 04:26:48;;;;;;;0.90;0.60;;;12.90;99.90;13.10;101254.00;;;;5020066;27;83839;-61
2022/07/12 04:29:18;;;;;;;0.80;0.73;;;13.00;99.90;13.20;101259.00;;;;5021185;27;82567;-61
2022/07/12 04:31:44;;;;;;;1.17;0.63;;;13.10;99.90;13.30;101256.00;;;;5017446;27;83381;-62
2022/07/12 04:34:10;;;;;;;1.37;0.83;;;13.20;99.90;13.50;101255.00;;;;5021087;27;83053;-61
2022/07/12 04:36:35;;;;;;;1.00;0.90;;;13.30;99.90;13.60;101257.00;;;;5020327;27;82630;-61
2022/07/12 04:39:02;;;;;;;0.50;0.50;;;13.50;99.90;13.70;101263.00;;;;5020325;27;108734;-62
2022/07/12 04:41:28;;;;;;;1.33;1.23;;;13.60;99.90;13.80;101266.00;;;;5010284;27;83180;-61
2022/07/12 04:43:54;;;;;;;2.00;1.43;;;13.70;99.90;14.00;101271.00;;;;4999944;28;113150;-61
2022/07/12 04:46:19;;;;;;;0.97;0.83;;;13.80;99.90;14.10;101270.00;;;;4999769;27;109914;-61
2022/07/12 04:48:45;;;;;;;1.57;1.00;;;13.90;99.90;14.20;101257.00;;;;4999885;27;107725;-60
2022/07/12 04:51:11;;;;;;;1.77;1.63;;;14.10;99.90;14.40;101258.00;;;;5010309;27;113779;-60
2022/07/12 04:53:36;;;;;;;0.90;0.90;;;14.20;99.90;14.50;101260.00;;;;5004291;27;84487;-61
2022/07/12 04:56:02;;;;;;;1.03;0.93;;;14.40;99.90;14.70;101269.00;;;;4996834;27;82552;-61
2022/07/12 04:58:28;;;;;;;0.60;0.60;;;14.50;99.90;14.80;101273.00;;;;4995821;27;82641;-61
2022/07/12 05:00:54;;;;;;;1.97;0.67;;;14.60;99.90;14.90;101268.00;;;;4983833;28;83868;-61
2022/07/12 05:03:20;;;;;;;0.60;0.60;;;14.80;99.90;15.10;101276.00;;;;4996044;28;93975;-61
2022/07/12 05:05:45;;;;;;;0.90;0.87;;;15.00;99.90;15.30;101283.00;;;;4999829;27;88172;-61
2022/07/12 05:08:11;;;;;;;2.53;1.10;;;15.10;99.90;15.40;101288.00;;;;4998597;28;94673;-61
2022/07/12 05:10:37;;;;;;;1.00;0.82;;;15.30;99.90;15.50;101295.00;;;;5000463;27;109689;-61
2022/07/12 05:13:03;;;;;;;0.93;0.70;;;15.40;99.90;15.60;101294.00;;;;4999833;27;82548;-62
2022/07/12 05:15:28;;;;;;;1.17;1.08;;;15.50;99.90;15.80;101286.00;;;;4998732;28;110866;-61
2022/07/12 05:17:54;;;;;;;1.35;1.10;;;15.90;99.90;15.90;101299.00;;;;4999036;27;109210;-61
2022/07/12 05:20:20;;;;;;;1.42;0.93;;;15.70;99.90;16.00;101284.00;;;;4999768;27;111648;-61
2022/07/12 05:22:45;;;;;;;1.48;0.80;;;15.90;99.90;16.10;101298.00;;;;4998661;28;108588;-61
2022/07/12 05:25:11;;;;;;;1.98;1.13;;;16.00;99.90;16.20;101293.00;;;;4999105;28;111609;-61
2022/07/12 05:27:37;;;;;;;1.42;0.98;;;16.10;99.90;16.30;101302.00;;;;4999488;28;82732;-62
2022/07/12 05:30:04;;;;;;;0.60;0.60;;;16.20;99.90;16.50;101300.00;;;;5006308;27;84243;-60
2022/07/12 05:32:30;;;;;;;1.58;1.45;;;16.30;99.90;16.60;101306.00;;;;5001409;27;83611;-62
2022/07/12 05:34:56;;;;;;;1.85;1.10;;;16.50;99.90;16.80;101300.00;;;;5002180;27;101255;-61
2022/07/12 05:37:25;;;;;;;1.20;0.95;;;16.60;99.90;16.90;101308.00;;;;5018360;27;108781;-60
2022/07/12 05:39:52;;;;;;;1.50;1.25;;;16.80;99.90;17.10;101304.00;;;;5014591;27;84917;-61
2022/07/12 05:42:18;;;;;;;7.55;1.13;;;16.90;99.90;17.30;101301.00;;;;5020026;27;83690;-62
2022/07/12 05:44:44;;;;;;;1.95;0.95;;;17.10;99.90;17.40;101306.00;;;;5017459;27;84051;-62
2022/07/12 05:47:10;;;;;;;0.68;0.68;;;17.30;99.90;17.60;101300.00;;;;5019310;27;89483;-62
2022/07/12 05:49:35;;;;;;;3.17;0.93;;;17.40;99.90;17.70;101315.00;;;;5014817;27;83051;-61
2022/07/12 05:54:45;;;;;;;0.75;0.65;;;17.70;99.90;18.10;101306.00;;;;4997824;27;82900;-62
2022/07/12 05:57:11;;;;;;;0.50;0.50;;;17.90;99.90;18.20;101310.00;;;;4998908;27;107196;-62
2022/07/12 05:59:37;;;;;;;1.85;0.73;;;18.00;99.80;18.30;101314.00;;;;4999223;27;112734;-62
2022/07/12 06:02:04;;;;;;;2.70;0.77;;;18.20;99.30;18.50;101318.00;;;;4999054;27;112816;-62
2022/07/12 06:04:30;;;;;;;0.38;0.38;;;18.30;98.90;18.70;101316.00;;;;4998421;27;84591;-61
2022/07/12 06:06:56;;;;;;;0.50;0.50;;;18.50;98.20;18.90;101323.00;;;;5011702;27;100003;-61
2022/07/12 06:09:22;;;;;;;0.63;0.63;;;18.70;97.40;19.00;101317.00;;;;5000025;27;82787;-62
2022/07/12 06:11:48;;;;;;;0.38;0.30;;;18.80;96.70;19.20;101330.00;;;;4999185;28;82722;-62
2022/07/12 06:14:14;;;;;;;0.75;0.70;;;19.00;96.20;19.30;101326.00;;;;4996534;27;109941;-61
2022/07/12 06:16:39;;;;;;;0.70;0.60;;;19.10;95.70;19.40;101317.00;;;;4999029;28;82700;-61
2022/07/12 06:19:05;;;;;;;1.02;0.52;;;19.30;95.30;19.60;101325.00;;;;4998425;28;112428;-61
2022/07/12 06:21:31;;;;;;;1.15;0.90;;;19.40;95.00;19.80;101333.00;;;;5013596;27;112447;-62
2022/07/12 06:23:56;;;;;;;1.17;0.90;;;19.60;94.10;20.00;101329.00;;;;5017633;27;111584;-62
2022/07/12 06:26:22;;;;;;;0.77;0.57;;;19.80;93.40;20.10;101326.00;;;;5002109;27;108721;-61
2022/07/12 06:28:48;;;;;;;0.82;0.82;;;19.90;92.80;20.20;101331.00;;;;4998892;27;113231;-62
2022/07/12 06:31:13;;;;;;;0.73;0.30;;;20.00;92.30;20.40;101331.00;;;;5014850;27;111456;-62
2022/07/12 06:33:39;;;;;;;0.35;0.35;;;20.20;91.80;20.50;101329.00;;;;5016859;27;107186;-62
2022/07/12 06:36:05;;;;;;;0.98;0.45;;;20.40;91.20;20.70;101330.00;;;;5019040;27;108386;-61
2022/07/12 06:38:31;;;;;;;1.23;0.73;;;20.50;90.80;20.90;101335.00;;;;5018326;27;99051;-60
2022/07/12 06:40:57;;;;;;;1.08;0.70;;;20.70;90.30;21.00;101335.00;;;;5015080;27;82844;-61
2022/07/12 06:43:22;;;;;;;1.23;0.80;;;20.90;89.60;21.20;101339.00;;;;5006541;27;82699;-62
2022/07/12 06:45:48;;;;;;;0.73;0.40;;;21.00;88.20;21.30;101341.00;;;;4998451;27;98673;-61
2022/07/12 06:48:14;;;;;;;0.57;0.57;;;21.10;86.80;21.40;101351.00;;;;4996813;28;114115;-60
2022/07/12 06:50:39;;;;;;;0.30;0.30;;;21.20;86.50;21.60;101350.00;;;;5009166;27;112732;-62
2022/07/12 06:53:05;;;;;;;0.70;0.70;;;21.40;85.60;21.80;101348.00;;;;5017775;27;103205;-63
2022/07/12 06:55:31;;;;;;;0.75;0.73;;;21.60;84.70;22.00;101357.00;;;;5010182;27;82691;-63
2022/07/12 06:57:56;;;;;;;1.75;1.05;;;21.80;83.30;22.20;101357.00;;;;4996915;27;112461;-62
2022/07/12 07:00:22;;;;;;;0.52;0.52;;;22.00;82.10;22.40;101341.00;;;;4998530;27;112455;-62
2022/07/12 07:02:48;;;;;;;1.13;0.55;;;22.20;81.00;22.60;101349.00;;;;4997388;28;100327;-63
2022/07/12 07:05:15;;;;;;;0.80;0.50;;;22.30;79.40;22.80;101341.00;;;;5003713;27;82753;-63
2022/07/12 07:07:41;;;;;;;0.50;0.50;;;22.50;78.70;22.90;101350.00;;;;5017630;27;83733;-61
2022/07/12 07:10:07;;;;;;;0.40;0.40;;;22.70;77.40;23.20;101348.00;;;;5016792;27;88929;-63
2022/07/12 07:12:33;;;;;;;0.38;0.38;;;22.90;76.30;23.30;101343.00;;;;5017958;27;82462;-62
2022/07/12 07:14:59;;;;;;;0.45;0.45;;;23.10;74.50;23.40;101341.00;;;;5013733;27;109144;-63
2022/07/12 07:17:24;;;;;;;0.65;0.65;;;23.20;72.30;23.50;101346.00;;;;4996740;28;113538;-62
2022/07/12 07:19:50;;;;;;;0.93;0.80;;;23.30;71.70;23.70;101348.00;;;;4998492;27;114170;-63
2022/07/12 07:22:15;;;;;;;0.47;0.45;;;23.40;70.30;23.70;101348.00;;;;5015821;27;110248;-62
2022/07/12 07:24:41;;;;;;;3.15;0.70;;;23.50;69.20;23.80;101345.00;;;;5016964;27;109595;-62
2022/07/12 07:27:08;;;;;;;0.57;0.40;;;23.60;68.10;24.00;101350.00;;;;5017438;27;90873;-62
2022/07/12 07:30:52;;;;;;;0.68;0.60;;;24.10;67.80;24.10;101346.00;;;;5014902;27;83505;-63
2022/07/12 07:32:22;;;;;;;1.52;0.70;;;23.90;65.20;24.20;101336.00;;;;4997736;28;83834;-63
2022/07/12 07:34:48;;;;;;;0.95;0.60;;;24.00;64.50;24.20;101331.00;;;;4997029;27;102720;-62
2022/07/12 07:37:14;;;;;;;0.40;0.40;;;24.10;63.20;24.30;101336.00;;;;4996671;27;112703;-62
2022/07/12 07:39:40;;;;;;;0.85;0.45;;;24.10;62.80;24.50;101337.00;;;;5008862;27;83697;-63
2022/07/12 07:42:05;;;;;;;0.65;0.65;;;24.30;62.50;24.60;101335.00;;;;5014937;27;110659;-63
2022/07/12 07:44:31;;;;;;;0.28;0.28;;;24.40;61.70;24.80;101338.00;;;;5019243;27;106981;-62
2022/07/12 07:46:57;;;;;;;0.82;0.40;;;24.60;61.40;25.00;101340.00;;;;5020221;27;112809;-62
2022/07/12 07:49:23;;;;;;;0.20;0.20;;;24.80;60.00;25.20;101327.00;;;;5014984;27;111110;-63
2022/07/12 07:51:48;;;;;;;0.10;0.10;;;25.00;58.10;25.40;101336.00;;;;5001260;27;82631;-64
2022/07/12 07:54:14;;;;;;;0.30;0.30;;;25.20;57.10;25.70;101329.00;;;;4999609;27;108988;-63
2022/07/12 07:56:40;;;;;;;0.20;0.20;;;25.40;56.10;25.90;101326.00;;;;5002386;27;110453;-62
2022/07/12 07:59:07;;;;;;;0.32;0.32;;;25.70;55.60;26.10;101329.00;;;;5000275;27;113967;-63
2022/07/12 08:01:44;;;;;;;0.20;0.10;;;25.80;54.00;26.30;101330.00;;;;4981744;28;82717;-64
2022/07/12 08:04:21;;;;;;;0.40;0.32;;;26.10;53.70;26.50;101327.00;;;;5007090;27;82498;-64
2022/07/12 08:06:48;;;;;;;0.63;0.50;;;26.20;52.60;26.60;101335.00;;;;5000467;27;84336;-64
2022/07/12 08:09:15;;;;;;;0.20;0.20;;;26.40;52.20;26.80;101324.00;;;;5001523;28;83064;-64
2022/07/12 08:11:42;;;;;;;0.38;0.28;;;26.50;51.50;27.00;101329.00;;;;5000853;28;82489;-63
2022/07/12 08:14:09;;;;;;;1.23;0.28;;;26.90;51.10;27.20;101327.00;;;;4999329;27;86222;-64
2022/07/12 08:16:35;;;;;;;0.30;0.25;;;26.90;50.30;27.30;101324.00;;;;5021177;27;83091;-63
2022/07/12 08:19:02;;;;;;;0.10;0.10;;;27.10;48.80;27.30;101320.00;;;;5014484;27;99775;-64
2022/07/12 08:21:28;;;;;;;0.40;0.30;;;27.10;48.00;27.40;101332.00;;;;5020967;27;82760;-64
2022/07/12 08:23:54;;;;;;;0.10;0.10;;;27.20;48.10;27.50;101330.00;;;;5020201;27;109057;-64
2022/07/12 08:26:20;;;;;;;0.25;0.25;;;27.30;47.90;27.70;101338.00;;;;5005661;27;83422;-63
2022/07/12 08:28:46;;;;;;;0.32;0.20;;;27.40;47.60;27.80;101326.00;;;;5000356;27;83577;-63
2022/07/12 08:31:14;;;;;;;0.10;0.10;;;27.60;46.70;27.60;101328.00;;;;4999450;27;110354;-63
2022/07/12 08:33:41;;;;;;;0.68;0.15;;;27.50;45.90;27.50;101337.00;;;;5009966;27;82566;-63
2022/07/12 08:36:08;;;;;;;0.25;0.10;;;27.40;45.70;27.50;101332.00;;;;5012618;27;83599;-63
2022/07/12 08:38:38;;;;;;;0.32;0.30;;;27.30;45.50;27.60;101332.00;;;;5020210;27;84706;-64
2022/07/12 08:41:07;;;;;;;0.08;0.08;;;27.40;45.10;27.70;101329.00;;;;5020576;27;82533;-63
2022/07/12 08:43:37;;;;;;;0.32;0.32;;;27.40;44.90;27.80;101325.00;;;;5009233;27;82998;-63
2022/07/12 08:46:05;;;;;;;0.10;0.10;;;27.50;44.60;28.00;101320.00;;;;5018596;27;83918;-64
2022/07/12 08:48:35;;;;;;;0.40;0.28;;;27.70;44.70;28.30;101315.00;;;;5021145;27;83424;-63
2022/07/12 08:51:06;;;;;;;0.43;0.40;;;27.90;44.50;28.50;101315.00;;;;4998202;28;99156;-63
2022/07/12 08:53:32;;;;;;;0.20;0.20;;;28.20;43.30;28.50;101324.00;;;;5010552;27;83011;-64
2022/07/12 08:55:59;;;;;;;0.57;0.20;;;28.30;43.30;28.50;101332.00;;;;5016371;27;84758;-64
2022/07/12 08:58:25;;;;;;;0.30;0.20;;;28.30;43.00;28.30;101333.00;;;;5015336;27;83862;-63
2022/07/12 09:00:51;;;;;;;0.28;0.28;;;28.20;42.50;28.10;101327.00;;;;5020354;27;82797;-63
2022/07/12 09:03:18;;;;;;;0.20;0.17;;;28.00;42.70;28.10;101329.00;;;;5011714;27;82744;-64
2022/07/12 09:05:53;;;;;;;0.40;0.30;;;27.90;43.00;28.20;101334.00;;;;4999304;27;83851;-64
2022/07/12 09:08:29;;;;;;;0.10;0.10;;;27.90;42.90;28.30;101330.00;;;;4999694;28;82505;-63
2022/07/12 09:10:57;;;;;;;0.20;0.20;;;28.00;42.80;28.50;101329.00;;;;5000796;27;82675;-63
2022/07/12 09:13:50;;;;;;;7.78;0.40;;;28.10;42.60;28.60;101331.00;;;;5008377;27;81935;-63
2022/07/12 09:16:21;;;;;;;0.13;0.13;;;28.30;41.90;28.60;101324.00;;;;5019292;27;82865;-63
2022/07/12 09:18:48;;;;;;;2.25;1.23;;;28.30;41.80;28.80;101331.00;;;;5019738;27;82688;-64
2022/07/12 09:21:29;;;;;;;0.20;0.20;;;28.40;41.80;29.10;101334.00;;;;5017382;27;96164;-64
2022/07/12 09:23:56;;;;;;;0.28;0.20;;;28.70;41.60;29.30;101333.00;;;;5017426;27;82554;-64
2022/07/12 09:26:34;;;;;;;0.15;0.15;;;28.80;40.50;29.20;101340.00;;;;5004930;27;83405;-64
2022/07/12 09:29:11;;;;;;;0.65;0.10;;;28.90;39.60;29.00;101331.00;;;;5002839;27;83254;-63
2022/07/12 09:37:18;;;;;;;0.35;0.20;;;28.60;39.60;29.00;101323.00;;;;4997673;28;82817;-64
2022/07/12 09:39:44;;;;;;;0.20;0.20;;;28.70;39.10;29.20;101324.00;;;;4982376;27;93051;-64
2022/07/12 09:42:12;;;;;;;0.10;0.10;;;28.80;39.30;29.40;101333.00;;;;5019237;27;82594;-64
2022/07/12 09:44:39;;;;;;;0.57;0.20;;;28.90;39.10;29.50;101330.00;;;;5017680;27;82574;-63
2022/07/12 09:47:15;;;;;;;0.28;0.20;;;29.10;38.80;29.30;101328.00;;;;5018846;27;84002;-63
2022/07/12 09:49:44;;;;;;;0.20;0.10;;;29.10;37.70;29.20;101336.00;;;;5009180;27;83483;-63
2022/07/12 09:52:18;;;;;;;0.10;0.10;;;28.90;38.30;29.30;101327.00;;;;5019575;27;82517;-64
2022/07/12 09:54:45;;;;;;;0.10;0.10;;;29.00;38.60;29.60;101324.00;;;;4997661;27;94978;-63
2022/07/12 09:57:35;;;;;;;1.27;0.20;;;29.20;38.80;29.60;101328.00;;;;4998076;28;111884;-64
2022/07/12 10:00:03;;;;;;;0.00;0.00;;;29.20;37.30;29.60;101333.00;;;;4996488;27;83136;-63
2022/07/12 10:02:29;;;;;;;0.00;0.00;;;29.20;37.50;29.60;101329.00;;;;5018231;27;82648;-63
2022/07/12 10:04:55;;;;;;;0.03;0.03;;;29.30;37.90;29.80;101320.00;;;;5002718;27;107892;-64
2022/07/12 10:07:21;;;;;;;0.40;0.20;;;29.40;37.70;29.90;101319.00;;;;4978315;28;112147;-63
2022/07/12 10:09:51;;;;;;;0.05;0.05;;;29.50;37.50;30.10;101320.00;;;;4979018;27;113097;-63
2022/07/12 10:12:20;;;;;;;0.30;0.30;;;29.60;37.50;30.30;101322.00;;;;4984460;27;100281;-63
2022/07/12 10:14:48;;;;;;;0.32;0.10;;;29.80;37.10;30.40;101326.00;;;;5008683;27;84133;-64
2022/07/12 10:17:22;;;;;;;0.30;0.30;;;29.90;36.80;30.50;101330.00;;;;5000107;27;82812;-64
2022/07/12 10:19:48;;;;;;;0.10;0.10;;;30.00;36.20;30.50;101328.00;;;;5010931;27;83449;-63
2022/07/12 10:22:21;;;;;;;3.83;0.40;;;30.00;36.00;30.70;101313.00;;;;5018977;27;82723;-64
2022/07/12 10:24:51;;;;;;;0.00;0.00;;;30.20;36.20;30.90;101315.00;;;;5001590;27;82764;-63
2022/07/12 10:27:17;;;;;;;1.60;0.40;;;30.30;35.60;31.10;101313.00;;;;4998083;27;83693;-64
2022/07/12 10:29:51;;;;;;;0.10;0.10;;;30.50;35.50;31.20;101310.00;;;;5000835;27;83807;-63
2022/07/12 10:32:25;;;;;;;0.00;0.00;;;30.60;34.60;31.30;101313.00;;;;5018510;27;82566;-63
2022/07/12 10:35:03;;;;;;;1.05;0.40;;;30.70;34.90;31.50;101319.00;;;;5000181;27;82893;-64
2022/07/12 10:37:29;;;;;;;0.20;0.20;;;30.90;34.80;31.80;101307.00;;;;4998098;27;83776;-64
2022/07/12 10:40:21;;;;;;;0.08;0.08;;;31.10;34.60;32.20;101306.00;;;;4998429;27;97909;-64
2022/07/12 10:43:07;;;;;;;0.00;0.00;;;31.40;34.00;32.50;101316.00;;;;4998962;27;83664;-64
2022/07/12 10:45:39;;;;;;;0.08;0.08;;;31.70;34.20;32.40;101311.00;;;;4967887;27;82854;-64
2022/07/12 10:48:14;;;;;;;0.65;0.32;;;31.80;33.80;32.40;101314.00;;;;4998218;28;83653;-64
2022/07/12 10:50:45;;;;;;;1.73;0.10;;;31.70;33.60;32.50;101307.00;;;;4988803;27;85820;-63
2022/07/12 10:53:40;;;;;;;0.22;0.10;;;31.80;33.30;32.70;101308.00;;;;5010723;27;82695;-64
2022/07/12 10:56:25;;;;;;;0.00;0.00;;;32.00;33.20;32.90;101313.00;;;;5011705;27;81954;-64